sensor_id;sensor_type;location;lat;lon;timestamp;P1;durP1;ratioP1;P2;durP2;ratioP2
23434;SDS011;11890;45.380;11.028;2022-08-30T00:01:28;6.53;;;4.13;;
23434;SDS011;11890;45.380;11.028;2022-08-30T00:03:57;8.68;;;5.00;;
23434;SDS011;11890;45.380;11.028;2022-08-30T00:06:26;6.63;;;4.68;;
23434;SDS011;11890;45.380;11.028;2022-08-30T00:08:55;7.70;;;4.85;;
23434;SDS011;11890;45.380;11.028;2022-08-30T00:11:24;9.48;;;4.78;;
23434;SDS011;11890;45.380;11.028;2022-08-30T00:13:54;7.35;;;4.55;;
23434;SDS011;11890;45.380;11.028;2022-08-30T00:16:23;7.25;;;4.88;;
23434;SDS011;11890;45.380;11.028;2022-08-30T00:18:52;7.93;;;4.75;;
23434;SDS011;11890;45.380;11.028;2022-08-30T00:21:20;5.93;;;4.20;;
23434;SDS011;11890;45.380;11.028;2022-08-30T00:23:48;8.63;;;4.20;;
23434;SDS011;11890;45.380;11.028;2022-08-30T00:26:15;5.60;;;4.07;;
23434;SDS011;11890;45.380;11.028;2022-08-30T00:28:43;8.35;;;5.10;;
23434;SDS011;11890;45.380;11.028;2022-08-30T00:31:10;6.60;;;4.30;;
23434;SDS011;11890;45.380;11.028;2022-08-30T00:33:41;8.70;;;5.07;;
23434;SDS011;11890;45.380;11.028;2022-08-30T00:36:08;8.85;;;5.05;;
23434;SDS011;11890;45.380;11.028;2022-08-30T00:38:36;8.02;;;5.53;;
23434;SDS011;11890;45.380;11.028;2022-08-30T00:41:03;8.02;;;5.10;;
23434;SDS011;11890;45.380;11.028;2022-08-30T00:43:32;10.40;;;5.80;;
23434;SDS011;11890;45.380;11.028;2022-08-30T00:46:03;7.30;;;5.38;;
23434;SDS011;11890;45.380;11.028;2022-08-30T00:48:35;8.20;;;5.40;;
23434;SDS011;11890;45.380;11.028;2022-08-30T00:51:07;6.82;;;4.72;;
23434;SDS011;11890;45.380;11.028;2022-08-30T00:53:38;9.15;;;5.60;;
23434;SDS011;11890;45.380;11.028;2022-08-30T00:56:09;10.20;;;7.00;;
23434;SDS011;11890;45.380;11.028;2022-08-30T00:58:39;9.60;;;5.78;;
23434;SDS011;11890;45.380;11.028;2022-08-30T01:01:10;8.35;;;5.22;;
23434;SDS011;11890;45.380;11.028;2022-08-30T01:03:39;7.13;;;5.30;;
23434;SDS011;11890;45.380;11.028;2022-08-30T01:06:07;8.10;;;5.68;;
23434;SDS011;11890;45.380;11.028;2022-08-30T01:08:35;7.18;;;4.82;;
23434;SDS011;11890;45.380;11.028;2022-08-30T01:11:02;9.07;;;5.78;;
23434;SDS011;11890;45.380;11.028;2022-08-30T01:13:31;12.65;;;6.13;;
23434;SDS011;11890;45.380;11.028;2022-08-30T01:16:01;9.02;;;5.70;;
23434;SDS011;11890;45.380;11.028;2022-08-30T01:18:30;9.85;;;5.53;;
23434;SDS011;11890;45.380;11.028;2022-08-30T01:21:00;11.02;;;6.32;;
23434;SDS011;11890;45.380;11.028;2022-08-30T01:23:49;10.27;;;5.78;;
23434;SDS011;11890;45.380;11.028;2022-08-30T01:26:20;7.10;;;5.43;;
23434;SDS011;11890;45.380;11.028;2022-08-30T01:28:49;10.57;;;5.65;;
23434;SDS011;11890;45.380;11.028;2022-08-30T01:31:21;10.25;;;6.00;;
23434;SDS011;11890;45.380;11.028;2022-08-30T01:33:49;8.35;;;5.53;;
23434;SDS011;11890;45.380;11.028;2022-08-30T01:36:17;15.20;;;6.50;;
23434;SDS011;11890;45.380;11.028;2022-08-30T01:38:49;7.47;;;5.30;;
23434;SDS011;11890;45.380;11.028;2022-08-30T01:41:29;8.80;;;6.35;;
23434;SDS011;11890;45.380;11.028;2022-08-30T01:44:05;10.73;;;5.60;;
23434;SDS011;11890;45.380;11.028;2022-08-30T01:46:36;9.57;;;5.93;;
23434;SDS011;11890;45.380;11.028;2022-08-30T01:49:07;9.63;;;6.20;;
23434;SDS011;11890;45.380;11.028;2022-08-30T01:51:39;7.37;;;5.00;;
23434;SDS011;11890;45.380;11.028;2022-08-30T01:54:07;9.93;;;5.57;;
23434;SDS011;11890;45.380;11.028;2022-08-30T01:56:35;9.50;;;5.68;;
23434;SDS011;11890;45.380;11.028;2022-08-30T01:59:03;8.90;;;6.13;;
23434;SDS011;11890;45.380;11.028;2022-08-30T02:01:32;8.52;;;5.30;;
23434;SDS011;11890;45.380;11.028;2022-08-30T02:04:03;8.82;;;6.22;;
23434;SDS011;11890;45.380;11.028;2022-08-30T02:06:31;9.45;;;6.20;;
23434;SDS011;11890;45.380;11.028;2022-08-30T02:08:59;10.50;;;6.85;;
23434;SDS011;11890;45.380;11.028;2022-08-30T02:11:26;8.68;;;5.32;;
23434;SDS011;11890;45.380;11.028;2022-08-30T02:13:54;10.73;;;6.60;;
23434;SDS011;11890;45.380;11.028;2022-08-30T02:16:22;10.90;;;5.90;;
23434;SDS011;11890;45.380;11.028;2022-08-30T02:18:51;8.52;;;6.20;;
23434;SDS011;11890;45.380;11.028;2022-08-30T02:21:19;10.57;;;6.43;;
23434;SDS011;11890;45.380;11.028;2022-08-30T02:23:47;9.32;;;6.30;;
23434;SDS011;11890;45.380;11.028;2022-08-30T02:26:14;10.98;;;6.72;;
23434;SDS011;11890;45.380;11.028;2022-08-30T02:28:42;11.18;;;7.32;;
23434;SDS011;11890;45.380;11.028;2022-08-30T02:31:19;11.18;;;6.30;;
23434;SDS011;11890;45.380;11.028;2022-08-30T02:33:48;9.63;;;6.57;;
23434;SDS011;11890;45.380;11.028;2022-08-30T02:36:18;11.82;;;6.97;;
23434;SDS011;11890;45.380;11.028;2022-08-30T02:38:47;8.50;;;5.97;;
23434;SDS011;11890;45.380;11.028;2022-08-30T02:41:15;9.27;;;6.35;;
23434;SDS011;11890;45.380;11.028;2022-08-30T02:43:43;10.10;;;6.47;;
23434;SDS011;11890;45.380;11.028;2022-08-30T02:46:11;8.43;;;5.95;;
23434;SDS011;11890;45.380;11.028;2022-08-30T02:48:39;11.95;;;6.15;;
23434;SDS011;11890;45.380;11.028;2022-08-30T02:51:07;14.55;;;6.97;;
23434;SDS011;11890;45.380;11.028;2022-08-30T02:53:37;11.50;;;6.38;;
23434;SDS011;11890;45.380;11.028;2022-08-30T02:56:06;8.90;;;6.13;;
23434;SDS011;11890;45.380;11.028;2022-08-30T02:58:34;10.32;;;6.88;;
23434;SDS011;11890;45.380;11.028;2022-08-30T03:01:03;9.27;;;6.72;;
23434;SDS011;11890;45.380;11.028;2022-08-30T03:03:31;12.93;;;7.97;;
23434;SDS011;11890;45.380;11.028;2022-08-30T03:05:59;12.05;;;7.47;;
23434;SDS011;11890;45.380;11.028;2022-08-30T03:08:29;12.98;;;7.50;;
23434;SDS011;11890;45.380;11.028;2022-08-30T03:10:58;10.88;;;7.13;;
23434;SDS011;11890;45.380;11.028;2022-08-30T03:13:26;12.00;;;6.70;;
23434;SDS011;11890;45.380;11.028;2022-08-30T03:15:54;12.35;;;6.50;;
23434;SDS011;11890;45.380;11.028;2022-08-30T03:18:22;11.95;;;6.65;;
23434;SDS011;11890;45.380;11.028;2022-08-30T03:20:50;6.93;;;4.90;;
23434;SDS011;11890;45.380;11.028;2022-08-30T03:23:20;5.30;;;3.83;;
23434;SDS011;11890;45.380;11.028;2022-08-30T03:25:49;5.40;;;3.20;;
23434;SDS011;11890;45.380;11.028;2022-08-30T03:28:17;4.38;;;2.97;;
23434;SDS011;11890;45.380;11.028;2022-08-30T03:30:45;4.93;;;2.65;;
23434;SDS011;11890;45.380;11.028;2022-08-30T03:33:13;4.80;;;2.78;;
23434;SDS011;11890;45.380;11.028;2022-08-30T03:35:43;5.43;;;3.08;;
23434;SDS011;11890;45.380;11.028;2022-08-30T03:38:11;5.05;;;2.95;;
23434;SDS011;11890;45.380;11.028;2022-08-30T03:40:38;4.63;;;2.55;;
23434;SDS011;11890;45.380;11.028;2022-08-30T03:43:06;4.78;;;2.80;;
23434;SDS011;11890;45.380;11.028;2022-08-30T03:45:33;4.18;;;2.85;;
23434;SDS011;11890;45.380;11.028;2022-08-30T03:48:01;4.80;;;2.70;;
23434;SDS011;11890;45.380;11.028;2022-08-30T03:50:29;4.55;;;2.85;;
23434;SDS011;11890;45.380;11.028;2022-08-30T03:52:57;5.00;;;3.08;;
23434;SDS011;11890;45.380;11.028;2022-08-30T03:55:27;4.80;;;3.33;;
23434;SDS011;11890;45.380;11.028;2022-08-30T03:57:56;5.05;;;3.22;;
23434;SDS011;11890;45.380;11.028;2022-08-30T04:00:24;7.00;;;4.18;;
23434;SDS011;11890;45.380;11.028;2022-08-30T04:02:51;8.35;;;5.00;;
23434;SDS011;11890;45.380;11.028;2022-08-30T04:05:19;7.13;;;4.40;;
23434;SDS011;11890;45.380;11.028;2022-08-30T04:07:47;6.70;;;3.95;;
23434;SDS011;11890;45.380;11.028;2022-08-30T04:10:15;9.63;;;4.93;;
23434;SDS011;11890;45.380;11.028;2022-08-30T04:12:42;11.52;;;5.15;;
23434;SDS011;11890;45.380;11.028;2022-08-30T04:15:15;19.30;;;6.23;;
23434;SDS011;11890;45.380;11.028;2022-08-30T04:17:43;7.70;;;4.43;;
23434;SDS011;11890;45.380;11.028;2022-08-30T04:20:11;6.43;;;4.57;;
23434;SDS011;11890;45.380;11.028;2022-08-30T04:22:38;8.05;;;4.78;;
23434;SDS011;11890;45.380;11.028;2022-08-30T04:25:06;10.82;;;4.97;;
23434;SDS011;11890;45.380;11.028;2022-08-30T04:27:41;7.28;;;4.70;;
23434;SDS011;11890;45.380;11.028;2022-08-30T04:30:09;7.78;;;4.90;;
23434;SDS011;11890;45.380;11.028;2022-08-30T04:32:37;7.65;;;4.65;;
23434;SDS011;11890;45.380;11.028;2022-08-30T04:35:05;8.70;;;5.15;;
23434;SDS011;11890;45.380;11.028;2022-08-30T04:37:33;6.88;;;4.95;;
23434;SDS011;11890;45.380;11.028;2022-08-30T04:40:00;8.15;;;4.75;;
23434;SDS011;11890;45.380;11.028;2022-08-30T04:42:30;7.00;;;4.63;;
23434;SDS011;11890;45.380;11.028;2022-08-30T04:45:00;6.82;;;4.28;;
23434;SDS011;11890;45.380;11.028;2022-08-30T04:47:30;9.10;;;5.18;;
23434;SDS011;11890;45.380;11.028;2022-08-30T04:49:58;7.53;;;5.10;;
23434;SDS011;11890;45.380;11.028;2022-08-30T04:52:25;7.68;;;4.47;;
23434;SDS011;11890;45.380;11.028;2022-08-30T04:54:54;7.45;;;4.07;;
23434;SDS011;11890;45.380;11.028;2022-08-30T04:57:23;9.82;;;5.45;;
23434;SDS011;11890;45.380;11.028;2022-08-30T04:59:52;7.60;;;4.72;;
23434;SDS011;11890;45.380;11.028;2022-08-30T05:02:19;11.02;;;5.45;;
23434;SDS011;11890;45.380;11.028;2022-08-30T05:04:47;9.93;;;4.35;;
23434;SDS011;11890;45.380;11.028;2022-08-30T05:07:34;5.13;;;3.40;;
23434;SDS011;11890;45.380;11.028;2022-08-30T05:10:02;7.45;;;3.80;;
23434;SDS011;11890;45.380;11.028;2022-08-30T05:12:36;6.03;;;3.47;;
23434;SDS011;11890;45.380;11.028;2022-08-30T05:15:04;6.03;;;4.07;;
23434;SDS011;11890;45.380;11.028;2022-08-30T05:17:32;7.57;;;3.55;;
23434;SDS011;11890;45.380;11.028;2022-08-30T05:20:00;7.53;;;4.15;;
23434;SDS011;11890;45.380;11.028;2022-08-30T05:22:28;8.07;;;3.65;;
23434;SDS011;11890;45.380;11.028;2022-08-30T05:24:55;5.95;;;3.63;;
23434;SDS011;11890;45.380;11.028;2022-08-30T05:27:22;6.63;;;3.70;;
23434;SDS011;11890;45.380;11.028;2022-08-30T05:29:50;5.60;;;3.55;;
23434;SDS011;11890;45.380;11.028;2022-08-30T05:32:17;6.72;;;3.80;;
23434;SDS011;11890;45.380;11.028;2022-08-30T05:34:44;7.18;;;4.13;;
23434;SDS011;11890;45.380;11.028;2022-08-30T05:37:12;9.98;;;4.03;;
23434;SDS011;11890;45.380;11.028;2022-08-30T05:39:39;7.90;;;3.60;;
23434;SDS011;11890;45.380;11.028;2022-08-30T05:42:17;5.35;;;3.83;;
23434;SDS011;11890;45.380;11.028;2022-08-30T05:44:45;9.27;;;4.78;;
23434;SDS011;11890;45.380;11.028;2022-08-30T05:47:20;6.93;;;3.80;;
23434;SDS011;11890;45.380;11.028;2022-08-30T05:49:47;6.05;;;3.38;;
23434;SDS011;11890;45.380;11.028;2022-08-30T05:52:15;6.32;;;3.53;;
23434;SDS011;11890;45.380;11.028;2022-08-30T05:54:44;5.40;;;2.88;;
23434;SDS011;11890;45.380;11.028;2022-08-30T05:57:11;5.70;;;2.63;;
23434;SDS011;11890;45.380;11.028;2022-08-30T05:59:39;4.88;;;2.60;;
23434;SDS011;11890;45.380;11.028;2022-08-30T06:02:06;3.55;;;2.08;;
23434;SDS011;11890;45.380;11.028;2022-08-30T06:04:34;4.32;;;2.00;;
23434;SDS011;11890;45.380;11.028;2022-08-30T06:07:04;5.63;;;2.40;;
23434;SDS011;11890;45.380;11.028;2022-08-30T06:09:35;3.17;;;2.05;;
23434;SDS011;11890;45.380;11.028;2022-08-30T06:12:02;4.35;;;1.83;;
23434;SDS011;11890;45.380;11.028;2022-08-30T06:14:30;3.28;;;2.00;;
23434;SDS011;11890;45.380;11.028;2022-08-30T06:16:57;3.97;;;2.25;;
23434;SDS011;11890;45.380;11.028;2022-08-30T06:19:24;3.72;;;2.08;;
23434;SDS011;11890;45.380;11.028;2022-08-30T06:21:52;6.18;;;2.20;;
23434;SDS011;11890;45.380;11.028;2022-08-30T06:24:19;8.23;;;4.10;;
23434;SDS011;11890;45.380;11.028;2022-08-30T06:27:08;3.80;;;2.63;;
23434;SDS011;11890;45.380;11.028;2022-08-30T06:29:35;6.25;;;2.85;;
23434;SDS011;11890;45.380;11.028;2022-08-30T06:32:03;3.25;;;1.77;;
23434;SDS011;11890;45.380;11.028;2022-08-30T06:34:30;3.92;;;1.85;;
23434;SDS011;11890;45.380;11.028;2022-08-30T06:36:58;3.63;;;1.50;;
23434;SDS011;11890;45.380;11.028;2022-08-30T06:39:25;2.90;;;1.70;;
23434;SDS011;11890;45.380;11.028;2022-08-30T06:41:52;2.40;;;1.38;;
23434;SDS011;11890;45.380;11.028;2022-08-30T06:44:26;1.83;;;1.15;;
23434;SDS011;11890;45.380;11.028;2022-08-30T06:46:55;3.78;;;1.45;;
23434;SDS011;11890;45.380;11.028;2022-08-30T06:49:23;3.05;;;1.35;;
23434;SDS011;11890;45.380;11.028;2022-08-30T06:51:51;1.83;;;0.90;;
23434;SDS011;11890;45.380;11.028;2022-08-30T06:54:19;2.22;;;1.25;;
23434;SDS011;11890;45.380;11.028;2022-08-30T06:56:47;2.67;;;1.17;;
23434;SDS011;11890;45.380;11.028;2022-08-30T06:59:24;2.05;;;1.13;;
23434;SDS011;11890;45.380;11.028;2022-08-30T07:01:53;2.58;;;0.82;;
23434;SDS011;11890;45.380;11.028;2022-08-30T07:04:21;2.20;;;1.23;;
23434;SDS011;11890;45.380;11.028;2022-08-30T07:06:49;2.63;;;1.45;;
23434;SDS011;11890;45.380;11.028;2022-08-30T07:09:16;4.32;;;1.52;;
23434;SDS011;11890;45.380;11.028;2022-08-30T07:11:48;2.97;;;1.30;;
23434;SDS011;11890;45.380;11.028;2022-08-30T07:14:16;1.92;;;1.17;;
23434;SDS011;11890;45.380;11.028;2022-08-30T07:16:44;3.05;;;1.33;;
23434;SDS011;11890;45.380;11.028;2022-08-30T07:19:16;2.88;;;1.50;;
23434;SDS011;11890;45.380;11.028;2022-08-30T07:21:47;4.22;;;2.20;;
23434;SDS011;11890;45.380;11.028;2022-08-30T07:24:15;3.33;;;2.05;;
23434;SDS011;11890;45.380;11.028;2022-08-30T07:26:45;4.55;;;2.28;;
23434;SDS011;11890;45.380;11.028;2022-08-30T07:29:15;4.13;;;1.98;;
23434;SDS011;11890;45.380;11.028;2022-08-30T07:31:43;2.75;;;1.60;;
23434;SDS011;11890;45.380;11.028;2022-08-30T07:34:11;5.88;;;2.03;;
23434;SDS011;11890;45.380;11.028;2022-08-30T07:36:38;4.97;;;1.92;;
23434;SDS011;11890;45.380;11.028;2022-08-30T07:39:06;4.40;;;2.08;;
23434;SDS011;11890;45.380;11.028;2022-08-30T07:41:34;4.20;;;2.00;;
23434;SDS011;11890;45.380;11.028;2022-08-30T07:44:08;3.72;;;1.83;;
23434;SDS011;11890;45.380;11.028;2022-08-30T07:46:36;3.67;;;1.73;;
23434;SDS011;11890;45.380;11.028;2022-08-30T07:49:05;3.53;;;1.73;;
23434;SDS011;11890;45.380;11.028;2022-08-30T07:51:37;2.53;;;1.67;;
23434;SDS011;11890;45.380;11.028;2022-08-30T07:54:05;3.88;;;1.38;;
23434;SDS011;11890;45.380;11.028;2022-08-30T07:56:33;2.75;;;1.60;;
23434;SDS011;11890;45.380;11.028;2022-08-30T07:59:01;2.17;;;1.20;;
23434;SDS011;11890;45.380;11.028;2022-08-30T08:01:29;1.98;;;1.30;;
23434;SDS011;11890;45.380;11.028;2022-08-30T08:03:57;2.95;;;1.30;;
23434;SDS011;11890;45.380;11.028;2022-08-30T08:06:24;4.13;;;1.55;;
23434;SDS011;11890;45.380;11.028;2022-08-30T08:08:58;4.05;;;1.55;;
23434;SDS011;11890;45.380;11.028;2022-08-30T08:11:28;4.82;;;1.60;;
23434;SDS011;11890;45.380;11.028;2022-08-30T08:13:59;2.10;;;1.10;;
23434;SDS011;11890;45.380;11.028;2022-08-30T08:16:29;1.50;;;0.93;;
23434;SDS011;11890;45.380;11.028;2022-08-30T08:18:58;1.95;;;1.20;;
23434;SDS011;11890;45.380;11.028;2022-08-30T08:21:26;1.67;;;1.33;;
23434;SDS011;11890;45.380;11.028;2022-08-30T08:23:54;3.45;;;1.33;;
23434;SDS011;11890;45.380;11.028;2022-08-30T08:26:21;4.88;;;1.33;;
23434;SDS011;11890;45.380;11.028;2022-08-30T08:28:49;4.57;;;1.88;;
23434;SDS011;11890;45.380;11.028;2022-08-30T08:31:17;2.72;;;1.75;;
23434;SDS011;11890;45.380;11.028;2022-08-30T08:34:00;3.33;;;1.50;;
23434;SDS011;11890;45.380;11.028;2022-08-30T08:36:29;3.90;;;1.50;;
23434;SDS011;11890;45.380;11.028;2022-08-30T08:38:57;2.72;;;1.42;;
23434;SDS011;11890;45.380;11.028;2022-08-30T08:41:32;3.00;;;1.48;;
23434;SDS011;11890;45.380;11.028;2022-08-30T08:44:06;3.17;;;1.67;;
23434;SDS011;11890;45.380;11.028;2022-08-30T08:49:25;3.90;;;1.58;;
23434;SDS011;11890;45.380;11.028;2022-08-30T08:51:54;7.43;;;1.60;;
23434;SDS011;11890;45.380;11.028;2022-08-30T08:54:41;2.75;;;1.60;;
23434;SDS011;11890;45.380;11.028;2022-08-30T08:57:26;2.38;;;1.33;;
23434;SDS011;11890;45.380;11.028;2022-08-30T08:59:59;3.05;;;1.83;;
23434;SDS011;11890;45.380;11.028;2022-08-30T09:02:33;2.40;;;1.23;;
23434;SDS011;11890;45.380;11.028;2022-08-30T09:05:14;7.75;;;1.63;;
23434;SDS011;11890;45.380;11.028;2022-08-30T09:07:49;4.57;;;2.20;;
23434;SDS011;11890;45.380;11.028;2022-08-30T09:10:21;5.75;;;2.10;;
23434;SDS011;11890;45.380;11.028;2022-08-30T09:13:10;6.13;;;2.28;;
23434;SDS011;11890;45.380;11.028;2022-08-30T09:15:39;18.00;;;3.40;;
23434;SDS011;11890;45.380;11.028;2022-08-30T09:18:07;5.45;;;1.70;;
23434;SDS011;11890;45.380;11.028;2022-08-30T09:20:47;3.67;;;2.17;;
23434;SDS011;11890;45.380;11.028;2022-08-30T09:23:20;3.85;;;1.77;;
23434;SDS011;11890;45.380;11.028;2022-08-30T09:25:55;2.47;;;1.48;;
23434;SDS011;11890;45.380;11.028;2022-08-30T09:33:38;2.95;;;1.77;;
23434;SDS011;11890;45.380;11.028;2022-08-30T09:36:09;3.08;;;1.83;;
23434;SDS011;11890;45.380;11.028;2022-08-30T09:38:45;4.05;;;1.85;;
23434;SDS011;11890;45.380;11.028;2022-08-30T09:41:27;2.25;;;1.38;;
23434;SDS011;11890;45.380;11.028;2022-08-30T09:44:18;3.20;;;1.80;;
23434;SDS011;11890;45.380;11.028;2022-08-30T09:46:48;2.88;;;1.58;;
23434;SDS011;11890;45.380;11.028;2022-08-30T09:49:39;4.05;;;2.25;;
23434;SDS011;11890;45.380;11.028;2022-08-30T10:00:18;3.85;;;1.83;;
23434;SDS011;11890;45.380;11.028;2022-08-30T10:02:51;2.63;;;1.67;;
23434;SDS011;11890;45.380;11.028;2022-08-30T10:14:07;2.50;;;1.80;;
23434;SDS011;11890;45.380;11.028;2022-08-30T10:17:25;3.92;;;1.90;;
23434;SDS011;11890;45.380;11.028;2022-08-30T10:22:49;2.20;;;1.33;;
23434;SDS011;11890;45.380;11.028;2022-08-30T10:25:40;2.78;;;1.88;;
23434;SDS011;11890;45.380;11.028;2022-08-30T10:28:29;2.55;;;1.63;;
23434;SDS011;11890;45.380;11.028;2022-08-30T10:31:17;2.97;;;1.70;;
23434;SDS011;11890;45.380;11.028;2022-08-30T10:34:04;3.28;;;1.77;;
23434;SDS011;11890;45.380;11.028;2022-08-30T10:36:42;2.58;;;1.55;;
23434;SDS011;11890;45.380;11.028;2022-08-30T10:39:15;3.25;;;1.60;;
23434;SDS011;11890;45.380;11.028;2022-08-30T10:41:49;3.20;;;1.73;;
23434;SDS011;11890;45.380;11.028;2022-08-30T10:44:26;3.50;;;1.58;;
23434;SDS011;11890;45.380;11.028;2022-08-30T10:47:05;3.30;;;1.80;;
23434;SDS011;11890;45.380;11.028;2022-08-30T10:50:06;2.70;;;1.60;;
23434;SDS011;11890;45.380;11.028;2022-08-30T10:58:02;2.85;;;1.42;;
23434;SDS011;11890;45.380;11.028;2022-08-30T11:06:11;4.95;;;1.73;;
23434;SDS011;11890;45.380;11.028;2022-08-30T11:14:08;3.67;;;1.98;;
23434;SDS011;11890;45.380;11.028;2022-08-30T11:16:42;3.22;;;1.95;;
23434;SDS011;11890;45.380;11.028;2022-08-30T11:19:22;3.33;;;2.05;;
23434;SDS011;11890;45.380;11.028;2022-08-30T11:22:13;3.42;;;1.90;;
23434;SDS011;11890;45.380;11.028;2022-08-30T11:25:08;2.63;;;1.70;;
23434;SDS011;11890;45.380;11.028;2022-08-30T11:27:49;3.15;;;1.52;;
23434;SDS011;11890;45.380;11.028;2022-08-30T11:35:46;3.33;;;2.08;;
23434;SDS011;11890;45.380;11.028;2022-08-30T11:38:56;6.45;;;2.63;;
23434;SDS011;11890;45.380;11.028;2022-08-30T11:41:13;3.15;;;1.95;;
23434;SDS011;11890;45.380;11.028;2022-08-30T11:44:11;3.45;;;1.70;;
23434;SDS011;11890;45.380;11.028;2022-08-30T11:46:39;3.13;;;1.63;;
23434;SDS011;11890;45.380;11.028;2022-08-30T12:13:08;3.40;;;1.90;;
23434;SDS011;11890;45.380;11.028;2022-08-30T12:16:02;3.63;;;2.22;;
23434;SDS011;11890;45.380;11.028;2022-08-30T12:23:50;4.15;;;2.38;;
23434;SDS011;11890;45.380;11.028;2022-08-30T12:26:38;4.22;;;2.45;;
23434;SDS011;11890;45.380;11.028;2022-08-30T12:31:43;3.50;;;1.70;;
23434;SDS011;11890;45.380;11.028;2022-08-30T12:34:16;3.20;;;1.90;;
23434;SDS011;11890;45.380;11.028;2022-08-30T12:36:54;4.25;;;1.75;;
23434;SDS011;11890;45.380;11.028;2022-08-30T12:39:32;5.53;;;1.95;;
23434;SDS011;11890;45.380;11.028;2022-08-30T12:42:10;3.88;;;1.85;;
23434;SDS011;11890;45.380;11.028;2022-08-30T12:44:44;3.25;;;1.83;;
23434;SDS011;11890;45.380;11.028;2022-08-30T12:47:13;3.75;;;1.80;;
23434;SDS011;11890;45.380;11.028;2022-08-30T12:49:45;5.05;;;2.33;;
23434;SDS011;11890;45.380;11.028;2022-08-30T12:54:42;3.53;;;1.73;;
23434;SDS011;11890;45.380;11.028;2022-08-30T12:57:11;4.40;;;1.83;;
23434;SDS011;11890;45.380;11.028;2022-08-30T12:59:59;4.82;;;2.10;;
23434;SDS011;11890;45.380;11.028;2022-08-30T13:02:45;3.75;;;2.08;;
23434;SDS011;11890;45.380;11.028;2022-08-30T13:08:14;3.70;;;2.10;;
23434;SDS011;11890;45.380;11.028;2022-08-30T13:13:42;5.57;;;2.50;;
23434;SDS011;11890;45.380;11.028;2022-08-30T13:18:48;3.30;;;1.80;;
23434;SDS011;11890;45.380;11.028;2022-08-30T13:23:56;2.60;;;1.60;;
23434;SDS011;11890;45.380;11.028;2022-08-30T13:26:26;3.95;;;2.42;;
23434;SDS011;11890;45.380;11.028;2022-08-30T13:28:57;3.72;;;2.03;;
23434;SDS011;11890;45.380;11.028;2022-08-30T13:31:26;3.03;;;1.88;;
23434;SDS011;11890;45.380;11.028;2022-08-30T13:33:56;4.78;;;2.45;;
23434;SDS011;11890;45.380;11.028;2022-08-30T13:36:27;4.20;;;2.13;;
23434;SDS011;11890;45.380;11.028;2022-08-30T13:38:56;2.67;;;1.67;;
23434;SDS011;11890;45.380;11.028;2022-08-30T13:41:25;3.47;;;2.00;;
23434;SDS011;11890;45.380;11.028;2022-08-30T13:44:00;3.90;;;2.33;;
23434;SDS011;11890;45.380;11.028;2022-08-30T13:46:40;3.40;;;1.90;;
23434;SDS011;11890;45.380;11.028;2022-08-30T13:49:21;4.28;;;1.85;;
23434;SDS011;11890;45.380;11.028;2022-08-30T13:52:17;4.18;;;2.40;;
23434;SDS011;11890;45.380;11.028;2022-08-30T13:54:52;3.03;;;2.13;;
23434;SDS011;11890;45.380;11.028;2022-08-30T13:57:22;2.92;;;2.05;;
23434;SDS011;11890;45.380;11.028;2022-08-30T14:00:13;4.90;;;1.90;;
23434;SDS011;11890;45.380;11.028;2022-08-30T14:02:45;5.30;;;2.13;;
23434;SDS011;11890;45.380;11.028;2022-08-30T14:05:25;6.22;;;2.10;;
23434;SDS011;11890;45.380;11.028;2022-08-30T14:08:21;3.72;;;2.38;;
23434;SDS011;11890;45.380;11.028;2022-08-30T14:11:17;4.72;;;2.17;;
23434;SDS011;11890;45.380;11.028;2022-08-30T14:13:47;2.85;;;2.08;;
23434;SDS011;11890;45.380;11.028;2022-08-30T14:16:36;4.10;;;2.10;;
23434;SDS011;11890;45.380;11.028;2022-08-30T14:19:07;3.80;;;2.60;;
23434;SDS011;11890;45.380;11.028;2022-08-30T14:21:36;3.65;;;2.05;;
23434;SDS011;11890;45.380;11.028;2022-08-30T14:24:04;4.50;;;2.15;;
23434;SDS011;11890;45.380;11.028;2022-08-30T14:26:34;4.55;;;2.50;;
23434;SDS011;11890;45.380;11.028;2022-08-30T14:29:06;3.83;;;2.28;;
23434;SDS011;11890;45.380;11.028;2022-08-30T14:31:37;4.00;;;1.90;;
23434;SDS011;11890;45.380;11.028;2022-08-30T14:34:05;5.50;;;2.50;;
23434;SDS011;11890;45.380;11.028;2022-08-30T14:36:37;3.40;;;2.28;;
23434;SDS011;11890;45.380;11.028;2022-08-30T14:39:09;3.25;;;2.55;;
23434;SDS011;11890;45.380;11.028;2022-08-30T14:41:42;3.22;;;2.20;;
23434;SDS011;11890;45.380;11.028;2022-08-30T14:44:12;2.78;;;1.80;;
23434;SDS011;11890;45.380;11.028;2022-08-30T14:46:41;4.03;;;2.30;;
23434;SDS011;11890;45.380;11.028;2022-08-30T14:49:09;3.28;;;2.10;;
23434;SDS011;11890;45.380;11.028;2022-08-30T14:51:38;5.03;;;2.33;;
23434;SDS011;11890;45.380;11.028;2022-08-30T14:54:06;3.88;;;2.30;;
23434;SDS011;11890;45.380;11.028;2022-08-30T14:56:35;6.13;;;2.95;;
23434;SDS011;11890;45.380;11.028;2022-08-30T14:59:04;4.05;;;2.58;;
23434;SDS011;11890;45.380;11.028;2022-08-30T15:01:33;4.45;;;2.78;;
23434;SDS011;11890;45.380;11.028;2022-08-30T15:04:04;4.07;;;2.40;;
23434;SDS011;11890;45.380;11.028;2022-08-30T15:06:33;5.05;;;2.50;;
23434;SDS011;11890;45.380;11.028;2022-08-30T15:09:02;4.68;;;2.58;;
23434;SDS011;11890;45.380;11.028;2022-08-30T15:11:30;3.92;;;2.58;;
23434;SDS011;11890;45.380;11.028;2022-08-30T15:13:59;4.30;;;2.60;;
23434;SDS011;11890;45.380;11.028;2022-08-30T15:16:29;3.92;;;2.53;;
23434;SDS011;11890;45.380;11.028;2022-08-30T15:18:59;8.43;;;3.38;;
23434;SDS011;11890;45.380;11.028;2022-08-30T15:21:28;4.38;;;2.55;;
23434;SDS011;11890;45.380;11.028;2022-08-30T15:24:06;5.03;;;2.40;;
23434;SDS011;11890;45.380;11.028;2022-08-30T15:26:35;6.82;;;3.03;;
23434;SDS011;11890;45.380;11.028;2022-08-30T15:29:02;3.72;;;2.38;;
23434;SDS011;11890;45.380;11.028;2022-08-30T15:31:30;4.70;;;3.15;;
23434;SDS011;11890;45.380;11.028;2022-08-30T15:33:58;5.00;;;2.92;;
23434;SDS011;11890;45.380;11.028;2022-08-30T15:36:26;4.78;;;2.83;;
23434;SDS011;11890;45.380;11.028;2022-08-30T15:38:56;5.65;;;3.15;;
23434;SDS011;11890;45.380;11.028;2022-08-30T15:41:25;4.70;;;2.95;;
23434;SDS011;11890;45.380;11.028;2022-08-30T15:43:55;4.47;;;2.92;;
23434;SDS011;11890;45.380;11.028;2022-08-30T15:46:27;3.53;;;2.30;;
23434;SDS011;11890;45.380;11.028;2022-08-30T15:49:04;6.43;;;2.90;;
23434;SDS011;11890;45.380;11.028;2022-08-30T15:51:34;5.70;;;3.08;;
23434;SDS011;11890;45.380;11.028;2022-08-30T15:54:12;4.68;;;3.08;;
23434;SDS011;11890;45.380;11.028;2022-08-30T15:56:42;5.30;;;3.03;;
23434;SDS011;11890;45.380;11.028;2022-08-30T15:59:11;3.65;;;2.33;;
23434;SDS011;11890;45.380;11.028;2022-08-30T16:01:41;3.60;;;2.45;;
23434;SDS011;11890;45.380;11.028;2022-08-30T16:04:13;4.60;;;2.75;;
23434;SDS011;11890;45.380;11.028;2022-08-30T16:06:44;4.65;;;2.45;;
23434;SDS011;11890;45.380;11.028;2022-08-30T16:09:12;6.00;;;2.67;;
23434;SDS011;11890;45.380;11.028;2022-08-30T16:11:40;6.63;;;2.83;;
23434;SDS011;11890;45.380;11.028;2022-08-30T16:14:07;4.38;;;2.50;;
23434;SDS011;11890;45.380;11.028;2022-08-30T16:16:37;4.53;;;3.05;;
23434;SDS011;11890;45.380;11.028;2022-08-30T16:19:07;5.45;;;2.45;;
23434;SDS011;11890;45.380;11.028;2022-08-30T16:21:35;8.05;;;3.53;;
23434;SDS011;11890;45.380;11.028;2022-08-30T16:24:04;3.78;;;2.35;;
23434;SDS011;11890;45.380;11.028;2022-08-30T16:26:36;5.20;;;2.95;;
23434;SDS011;11890;45.380;11.028;2022-08-30T16:29:04;6.25;;;2.90;;
23434;SDS011;11890;45.380;11.028;2022-08-30T16:31:34;8.07;;;3.97;;
23434;SDS011;11890;45.380;11.028;2022-08-30T16:34:03;4.65;;;2.90;;